sensor_id;sensor_type;location;lat;lon;timestamp;P1;durP1;ratioP1;P2;durP2;ratioP2
17382;SDS011;8809;51.892;8.384;2022-09-09T00:00:24;1.02;;;0.85;;
17382;SDS011;8809;51.892;8.384;2022-09-09T00:02:58;0.60;;;0.50;;
17382;SDS011;8809;51.892;8.384;2022-09-09T00:05:34;0.82;;;0.63;;
17382;SDS011;8809;51.892;8.384;2022-09-09T00:08:11;0.82;;;0.50;;
17382;SDS011;8809;51.892;8.384;2022-09-09T00:10:44;1.27;;;0.80;;
17382;SDS011;8809;51.892;8.384;2022-09-09T00:13:19;1.50;;;0.63;;
17382;SDS011;8809;51.892;8.384;2022-09-09T00:15:52;0.60;;;0.60;;
17382;SDS011;8809;51.892;8.384;2022-09-09T00:18:27;0.65;;;0.50;;
17382;SDS011;8809;51.892;8.384;2022-09-09T00:20:58;1.02;;;0.60;;
17382;SDS011;8809;51.892;8.384;2022-09-09T00:23:33;1.38;;;0.80;;
17382;SDS011;8809;51.892;8.384;2022-09-09T00:26:05;0.93;;;0.70;;
17382;SDS011;8809;51.892;8.384;2022-09-09T00:28:39;0.95;;;0.80;;
17382;SDS011;8809;51.892;8.384;2022-09-09T00:31:13;3.58;;;0.80;;
17382;SDS011;8809;51.892;8.384;2022-09-09T00:33:44;1.70;;;0.90;;
17382;SDS011;8809;51.892;8.384;2022-09-09T00:36:13;1.17;;;0.90;;
17382;SDS011;8809;51.892;8.384;2022-09-09T00:38:45;2.03;;;0.95;;
17382;SDS011;8809;51.892;8.384;2022-09-09T00:41:18;2.38;;;0.98;;
17382;SDS011;8809;51.892;8.384;2022-09-09T00:43:55;2.28;;;1.10;;
17382;SDS011;8809;51.892;8.384;2022-09-09T00:46:55;1.48;;;0.90;;
17382;SDS011;8809;51.892;8.384;2022-09-09T00:49:35;2.05;;;1.17;;
17382;SDS011;8809;51.892;8.384;2022-09-09T00:52:15;1.23;;;0.77;;
17382;SDS011;8809;51.892;8.384;2022-09-09T00:54:54;1.88;;;0.90;;
17382;SDS011;8809;51.892;8.384;2022-09-09T00:57:32;2.45;;;1.00;;
17382;SDS011;8809;51.892;8.384;2022-09-09T01:00:16;1.70;;;0.65;;
17382;SDS011;8809;51.892;8.384;2022-09-09T01:02:48;1.65;;;0.90;;
17382;SDS011;8809;51.892;8.384;2022-09-09T01:05:27;1.02;;;0.85;;
17382;SDS011;8809;51.892;8.384;2022-09-09T01:08:00;2.00;;;1.10;;
17382;SDS011;8809;51.892;8.384;2022-09-09T01:10:30;1.63;;;0.90;;
17382;SDS011;8809;51.892;8.384;2022-09-09T01:13:08;1.35;;;0.50;;
17382;SDS011;8809;51.892;8.384;2022-09-09T01:15:41;1.95;;;0.90;;
17382;SDS011;8809;51.892;8.384;2022-09-09T01:18:12;2.10;;;0.77;;
17382;SDS011;8809;51.892;8.384;2022-09-09T01:20:46;1.50;;;0.80;;
17382;SDS011;8809;51.892;8.384;2022-09-09T01:23:26;1.20;;;0.65;;
17382;SDS011;8809;51.892;8.384;2022-09-09T01:26:14;1.42;;;0.90;;
17382;SDS011;8809;51.892;8.384;2022-09-09T01:28:45;0.75;;;0.60;;
17382;SDS011;8809;51.892;8.384;2022-09-09T01:31:15;0.68;;;0.68;;
17382;SDS011;8809;51.892;8.384;2022-09-09T01:33:44;2.33;;;0.75;;
17382;SDS011;8809;51.892;8.384;2022-09-09T01:36:12;0.82;;;0.75;;
17382;SDS011;8809;51.892;8.384;2022-09-09T01:38:43;2.45;;;1.00;;
17382;SDS011;8809;51.892;8.384;2022-09-09T01:41:10;2.17;;;1.30;;
17382;SDS011;8809;51.892;8.384;2022-09-09T01:43:38;1.17;;;0.80;;
17382;SDS011;8809;51.892;8.384;2022-09-09T01:46:05;3.35;;;1.15;;
17382;SDS011;8809;51.892;8.384;2022-09-09T01:48:32;1.80;;;1.08;;
17382;SDS011;8809;51.892;8.384;2022-09-09T01:50:59;0.77;;;0.75;;
17382;SDS011;8809;51.892;8.384;2022-09-09T01:53:26;1.30;;;0.98;;
17382;SDS011;8809;51.892;8.384;2022-09-09T01:55:58;2.20;;;0.95;;
17382;SDS011;8809;51.892;8.384;2022-09-09T01:58:37;1.45;;;0.70;;
17382;SDS011;8809;51.892;8.384;2022-09-09T02:01:19;1.77;;;0.95;;
17382;SDS011;8809;51.892;8.384;2022-09-09T02:03:55;1.10;;;0.90;;
17382;SDS011;8809;51.892;8.384;2022-09-09T02:06:25;1.20;;;0.82;;
17382;SDS011;8809;51.892;8.384;2022-09-09T02:08:56;1.10;;;0.70;;
17382;SDS011;8809;51.892;8.384;2022-09-09T02:11:26;1.08;;;0.85;;
17382;SDS011;8809;51.892;8.384;2022-09-09T02:13:57;1.25;;;1.00;;
17382;SDS011;8809;51.892;8.384;2022-09-09T02:16:28;1.52;;;0.80;;
17382;SDS011;8809;51.892;8.384;2022-09-09T02:19:01;0.95;;;0.80;;
17382;SDS011;8809;51.892;8.384;2022-09-09T02:21:32;1.05;;;0.70;;
17382;SDS011;8809;51.892;8.384;2022-09-09T02:24:02;1.48;;;0.90;;
17382;SDS011;8809;51.892;8.384;2022-09-09T02:26:33;1.50;;;0.75;;
17382;SDS011;8809;51.892;8.384;2022-09-09T02:29:15;0.63;;;0.60;;
17382;SDS011;8809;51.892;8.384;2022-09-09T02:31:59;1.05;;;0.60;;
17382;SDS011;8809;51.892;8.384;2022-09-09T02:38:05;1.08;;;0.90;;
17382;SDS011;8809;51.892;8.384;2022-09-09T02:40:37;0.80;;;0.70;;
17382;SDS011;8809;51.892;8.384;2022-09-09T02:43:03;1.63;;;0.82;;
17382;SDS011;8809;51.892;8.384;2022-09-09T02:45:34;0.85;;;0.70;;
17382;SDS011;8809;51.892;8.384;2022-09-09T02:48:09;1.00;;;0.80;;
17382;SDS011;8809;51.892;8.384;2022-09-09T02:50:43;1.02;;;0.93;;
17382;SDS011;8809;51.892;8.384;2022-09-09T02:53:22;0.63;;;0.63;;
17382;SDS011;8809;51.892;8.384;2022-09-09T02:55:54;0.80;;;0.75;;
17382;SDS011;8809;51.892;8.384;2022-09-09T02:58:24;1.08;;;0.70;;
17382;SDS011;8809;51.892;8.384;2022-09-09T03:00:53;0.80;;;0.73;;
17382;SDS011;8809;51.892;8.384;2022-09-09T03:03:19;0.68;;;0.68;;
17382;SDS011;8809;51.892;8.384;2022-09-09T03:05:47;1.50;;;1.00;;
17382;SDS011;8809;51.892;8.384;2022-09-09T03:08:14;1.15;;;1.00;;
17382;SDS011;8809;51.892;8.384;2022-09-09T03:10:41;0.80;;;0.70;;
17382;SDS011;8809;51.892;8.384;2022-09-09T03:13:08;1.35;;;1.00;;
17382;SDS011;8809;51.892;8.384;2022-09-09T03:15:35;0.80;;;0.70;;
17382;SDS011;8809;51.892;8.384;2022-09-09T03:18:03;1.00;;;0.80;;
17382;SDS011;8809;51.892;8.384;2022-09-09T03:20:31;1.00;;;0.90;;
17382;SDS011;8809;51.892;8.384;2022-09-09T03:22:59;1.75;;;0.90;;
17382;SDS011;8809;51.892;8.384;2022-09-09T03:25:27;1.00;;;0.90;;
17382;SDS011;8809;51.892;8.384;2022-09-09T03:27:55;1.33;;;0.90;;
17382;SDS011;8809;51.892;8.384;2022-09-09T03:30:22;1.35;;;0.80;;
17382;SDS011;8809;51.892;8.384;2022-09-09T03:32:49;1.00;;;0.90;;
17382;SDS011;8809;51.892;8.384;2022-09-09T03:35:17;0.73;;;0.70;;
17382;SDS011;8809;51.892;8.384;2022-09-09T03:37:45;1.70;;;1.10;;
17382;SDS011;8809;51.892;8.384;2022-09-09T03:40:12;1.02;;;0.75;;
17382;SDS011;8809;51.892;8.384;2022-09-09T03:42:39;1.55;;;0.90;;
17382;SDS011;8809;51.892;8.384;2022-09-09T03:45:07;1.05;;;0.70;;
17382;SDS011;8809;51.892;8.384;2022-09-09T03:47:35;1.50;;;0.90;;
17382;SDS011;8809;51.892;8.384;2022-09-09T03:50:02;1.35;;;1.00;;
17382;SDS011;8809;51.892;8.384;2022-09-09T03:52:35;1.35;;;1.10;;
17382;SDS011;8809;51.892;8.384;2022-09-09T03:55:02;1.48;;;1.00;;
17382;SDS011;8809;51.892;8.384;2022-09-09T03:57:30;1.73;;;1.13;;
17382;SDS011;8809;51.892;8.384;2022-09-09T03:59:57;1.33;;;0.88;;
17382;SDS011;8809;51.892;8.384;2022-09-09T04:02:26;1.98;;;1.17;;
17382;SDS011;8809;51.892;8.384;2022-09-09T04:04:52;3.30;;;1.20;;
17382;SDS011;8809;51.892;8.384;2022-09-09T04:07:19;3.95;;;1.65;;
17382;SDS011;8809;51.892;8.384;2022-09-09T04:09:48;3.38;;;1.50;;
17382;SDS011;8809;51.892;8.384;2022-09-09T04:12:14;3.65;;;1.70;;
17382;SDS011;8809;51.892;8.384;2022-09-09T04:14:41;1.80;;;1.40;;
17382;SDS011;8809;51.892;8.384;2022-09-09T04:17:08;2.30;;;1.23;;
17382;SDS011;8809;51.892;8.384;2022-09-09T04:19:35;2.20;;;1.40;;
17382;SDS011;8809;51.892;8.384;2022-09-09T04:22:02;2.28;;;1.50;;
17382;SDS011;8809;51.892;8.384;2022-09-09T04:24:29;1.85;;;1.50;;
17382;SDS011;8809;51.892;8.384;2022-09-09T04:26:57;2.40;;;1.30;;
17382;SDS011;8809;51.892;8.384;2022-09-09T04:29:24;1.67;;;1.23;;
17382;SDS011;8809;51.892;8.384;2022-09-09T04:31:51;2.63;;;1.30;;
17382;SDS011;8809;51.892;8.384;2022-09-09T04:34:18;1.25;;;1.10;;
17382;SDS011;8809;51.892;8.384;2022-09-09T04:36:45;1.92;;;1.20;;
17382;SDS011;8809;51.892;8.384;2022-09-09T04:39:12;1.33;;;1.13;;
17382;SDS011;8809;51.892;8.384;2022-09-09T04:41:39;1.77;;;1.00;;
17382;SDS011;8809;51.892;8.384;2022-09-09T04:44:08;2.75;;;1.17;;
17382;SDS011;8809;51.892;8.384;2022-09-09T04:46:35;2.05;;;1.13;;
17382;SDS011;8809;51.892;8.384;2022-09-09T04:49:02;2.10;;;1.17;;
17382;SDS011;8809;51.892;8.384;2022-09-09T04:51:29;2.33;;;1.30;;
17382;SDS011;8809;51.892;8.384;2022-09-09T04:53:56;1.55;;;1.10;;
17382;SDS011;8809;51.892;8.384;2022-09-09T04:56:23;1.33;;;1.10;;
17382;SDS011;8809;51.892;8.384;2022-09-09T04:58:52;1.67;;;1.10;;
17382;SDS011;8809;51.892;8.384;2022-09-09T05:01:21;1.88;;;1.05;;
17382;SDS011;8809;51.892;8.384;2022-09-09T05:03:49;2.17;;;1.25;;
17382;SDS011;8809;51.892;8.384;2022-09-09T05:06:17;1.25;;;1.10;;
17382;SDS011;8809;51.892;8.384;2022-09-09T05:08:45;1.80;;;1.08;;
17382;SDS011;8809;51.892;8.384;2022-09-09T05:11:17;1.60;;;1.02;;
17382;SDS011;8809;51.892;8.384;2022-09-09T05:13:45;1.73;;;0.98;;
17382;SDS011;8809;51.892;8.384;2022-09-09T05:16:12;1.52;;;1.08;;
17382;SDS011;8809;51.892;8.384;2022-09-09T05:18:41;1.30;;;1.20;;
17382;SDS011;8809;51.892;8.384;2022-09-09T05:21:09;1.77;;;1.20;;
17382;SDS011;8809;51.892;8.384;2022-09-09T05:23:36;1.73;;;1.27;;
17382;SDS011;8809;51.892;8.384;2022-09-09T05:26:04;1.30;;;0.82;;
17382;SDS011;8809;51.892;8.384;2022-09-09T05:28:33;1.20;;;0.98;;
17382;SDS011;8809;51.892;8.384;2022-09-09T05:31:01;1.05;;;0.95;;
17382;SDS011;8809;51.892;8.384;2022-09-09T05:33:30;1.20;;;1.10;;
17382;SDS011;8809;51.892;8.384;2022-09-09T05:36:00;2.85;;;1.15;;
17382;SDS011;8809;51.892;8.384;2022-09-09T05:38:28;1.25;;;1.10;;
17382;SDS011;8809;51.892;8.384;2022-09-09T05:40:55;1.25;;;1.15;;
17382;SDS011;8809;51.892;8.384;2022-09-09T05:43:23;1.85;;;1.17;;
17382;SDS011;8809;51.892;8.384;2022-09-09T05:45:58;1.95;;;1.20;;
17382;SDS011;8809;51.892;8.384;2022-09-09T05:48:27;0.93;;;0.90;;
17382;SDS011;8809;51.892;8.384;2022-09-09T05:50:55;1.23;;;1.10;;
17382;SDS011;8809;51.892;8.384;2022-09-09T05:53:24;1.08;;;0.98;;
17382;SDS011;8809;51.892;8.384;2022-09-09T05:55:57;2.42;;;1.00;;
17382;SDS011;8809;51.892;8.384;2022-09-09T05:58:25;1.20;;;1.10;;
17382;SDS011;8809;51.892;8.384;2022-09-09T06:00:52;1.25;;;0.90;;
17382;SDS011;8809;51.892;8.384;2022-09-09T06:03:26;1.02;;;0.93;;
17382;SDS011;8809;51.892;8.384;2022-09-09T06:05:56;0.98;;;0.90;;
17382;SDS011;8809;51.892;8.384;2022-09-09T06:08:25;1.38;;;0.80;;
17382;SDS011;8809;51.892;8.384;2022-09-09T06:10:52;1.20;;;1.00;;
17382;SDS011;8809;51.892;8.384;2022-09-09T06:13:19;0.93;;;0.93;;
17382;SDS011;8809;51.892;8.384;2022-09-09T06:15:50;1.73;;;0.88;;
17382;SDS011;8809;51.892;8.384;2022-09-09T06:18:17;1.05;;;0.95;;
17382;SDS011;8809;51.892;8.384;2022-09-09T06:20:52;0.80;;;0.73;;
17382;SDS011;8809;51.892;8.384;2022-09-09T06:23:20;1.13;;;1.00;;
17382;SDS011;8809;51.892;8.384;2022-09-09T06:25:49;2.50;;;1.10;;
17382;SDS011;8809;51.892;8.384;2022-09-09T06:28:16;1.25;;;0.90;;
17382;SDS011;8809;51.892;8.384;2022-09-09T06:30:44;1.05;;;0.88;;
17382;SDS011;8809;51.892;8.384;2022-09-09T06:33:12;2.13;;;1.00;;
17382;SDS011;8809;51.892;8.384;2022-09-09T06:35:39;1.55;;;1.00;;
17382;SDS011;8809;51.892;8.384;2022-09-09T06:38:06;1.10;;;1.00;;
17382;SDS011;8809;51.892;8.384;2022-09-09T06:40:33;2.33;;;1.40;;
17382;SDS011;8809;51.892;8.384;2022-09-09T06:43:02;1.77;;;1.30;;
17382;SDS011;8809;51.892;8.384;2022-09-09T06:45:29;2.28;;;1.20;;
17382;SDS011;8809;51.892;8.384;2022-09-09T06:47:56;1.42;;;1.13;;
17382;SDS011;8809;51.892;8.384;2022-09-09T06:50:23;4.22;;;1.40;;
17382;SDS011;8809;51.892;8.384;2022-09-09T06:52:49;1.85;;;1.20;;
17382;SDS011;8809;51.892;8.384;2022-09-09T06:55:28;1.67;;;1.30;;
17382;SDS011;8809;51.892;8.384;2022-09-09T06:58:09;1.23;;;1.10;;
17382;SDS011;8809;51.892;8.384;2022-09-09T07:00:36;3.00;;;1.17;;
17382;SDS011;8809;51.892;8.384;2022-09-09T07:03:03;2.95;;;1.10;;
17382;SDS011;8809;51.892;8.384;2022-09-09T07:05:34;2.10;;;1.20;;
17382;SDS011;8809;51.892;8.384;2022-09-09T07:08:43;1.33;;;1.08;;
17382;SDS011;8809;51.892;8.384;2022-09-09T07:11:34;3.38;;;1.30;;
17382;SDS011;8809;51.892;8.384;2022-09-09T07:15:37;1.45;;;1.25;;
17382;SDS011;8809;51.892;8.384;2022-09-09T07:18:38;1.38;;;1.13;;
17382;SDS011;8809;51.892;8.384;2022-09-09T07:21:06;2.92;;;1.25;;
17382;SDS011;8809;51.892;8.384;2022-09-09T07:23:33;1.58;;;1.10;;
17382;SDS011;8809;51.892;8.384;2022-09-09T07:26:02;3.55;;;1.63;;
17382;SDS011;8809;51.892;8.384;2022-09-09T07:28:29;2.92;;;1.30;;
17382;SDS011;8809;51.892;8.384;2022-09-09T07:30:58;2.40;;;1.10;;
17382;SDS011;8809;51.892;8.384;2022-09-09T07:33:27;1.52;;;1.17;;
17382;SDS011;8809;51.892;8.384;2022-09-09T07:36:01;2.92;;;1.15;;
17382;SDS011;8809;51.892;8.384;2022-09-09T07:38:29;2.42;;;1.35;;
17382;SDS011;8809;51.892;8.384;2022-09-09T07:41:02;3.78;;;1.40;;
17382;SDS011;8809;51.892;8.384;2022-09-09T07:43:30;1.80;;;1.10;;
17382;SDS011;8809;51.892;8.384;2022-09-09T07:45:58;3.90;;;1.85;;
17382;SDS011;8809;51.892;8.384;2022-09-09T07:48:26;2.42;;;1.10;;
17382;SDS011;8809;51.892;8.384;2022-09-09T07:51:17;1.92;;;1.30;;
17382;SDS011;8809;51.892;8.384;2022-09-09T07:54:45;2.67;;;1.20;;
17382;SDS011;8809;51.892;8.384;2022-09-09T07:57:35;2.38;;;1.08;;
17382;SDS011;8809;51.892;8.384;2022-09-09T08:00:41;2.42;;;1.20;;
17382;SDS011;8809;51.892;8.384;2022-09-09T08:02:55;2.25;;;1.40;;
17382;SDS011;8809;51.892;8.384;2022-09-09T08:05:22;2.03;;;1.20;;
17382;SDS011;8809;51.892;8.384;2022-09-09T08:07:57;3.60;;;1.35;;
17382;SDS011;8809;51.892;8.384;2022-09-09T08:10:39;3.05;;;1.45;;
17382;SDS011;8809;51.892;8.384;2022-09-09T08:13:35;9.30;;;1.90;;
17382;SDS011;8809;51.892;8.384;2022-09-09T08:16:22;5.88;;;1.77;;
17382;SDS011;8809;51.892;8.384;2022-09-09T08:19:12;2.67;;;1.35;;
17382;SDS011;8809;51.892;8.384;2022-09-09T08:21:49;2.80;;;1.23;;
17382;SDS011;8809;51.892;8.384;2022-09-09T08:24:21;2.97;;;1.30;;
17382;SDS011;8809;51.892;8.384;2022-09-09T08:26:48;4.70;;;1.48;;
17382;SDS011;8809;51.892;8.384;2022-09-09T08:29:24;4.85;;;1.42;;
17382;SDS011;8809;51.892;8.384;2022-09-09T08:32:11;3.97;;;1.42;;
17382;SDS011;8809;51.892;8.384;2022-09-09T08:34:40;2.30;;;1.08;;
17382;SDS011;8809;51.892;8.384;2022-09-09T08:37:07;3.50;;;1.25;;
17382;SDS011;8809;51.892;8.384;2022-09-09T08:39:34;3.03;;;1.40;;
17382;SDS011;8809;51.892;8.384;2022-09-09T08:42:06;4.57;;;1.33;;
17382;SDS011;8809;51.892;8.384;2022-09-09T08:44:48;4.57;;;1.30;;
17382;SDS011;8809;51.892;8.384;2022-09-09T08:47:27;3.70;;;1.30;;
17382;SDS011;8809;51.892;8.384;2022-09-09T08:50:11;6.55;;;1.50;;
17382;SDS011;8809;51.892;8.384;2022-09-09T08:52:49;4.78;;;1.30;;
17382;SDS011;8809;51.892;8.384;2022-09-09T08:55:23;4.80;;;1.33;;
17382;SDS011;8809;51.892;8.384;2022-09-09T08:57:54;3.15;;;1.00;;
17382;SDS011;8809;51.892;8.384;2022-09-09T09:00:23;4.75;;;1.30;;
17382;SDS011;8809;51.892;8.384;2022-09-09T09:03:01;2.13;;;0.90;;
17382;SDS011;8809;51.892;8.384;2022-09-09T09:05:41;2.22;;;0.80;;
17382;SDS011;8809;51.892;8.384;2022-09-09T09:08:16;2.65;;;1.20;;
17382;SDS011;8809;51.892;8.384;2022-09-09T09:10:49;3.78;;;1.00;;
17382;SDS011;8809;51.892;8.384;2022-09-09T09:13:19;2.95;;;0.95;;
17382;SDS011;8809;51.892;8.384;2022-09-09T09:15:50;1.95;;;1.00;;
17382;SDS011;8809;51.892;8.384;2022-09-09T09:18:21;3.42;;;1.20;;
17382;SDS011;8809;51.892;8.384;2022-09-09T09:20:53;3.88;;;1.05;;
17382;SDS011;8809;51.892;8.384;2022-09-09T09:23:29;3.38;;;1.17;;
17382;SDS011;8809;51.892;8.384;2022-09-09T09:26:05;3.20;;;1.30;;
17382;SDS011;8809;51.892;8.384;2022-09-09T09:28:36;1.90;;;1.10;;
17382;SDS011;8809;51.892;8.384;2022-09-09T09:31:03;3.30;;;1.33;;
17382;SDS011;8809;51.892;8.384;2022-09-09T09:33:33;3.50;;;1.02;;
17382;SDS011;8809;51.892;8.384;2022-09-09T09:36:07;3.40;;;1.10;;
17382;SDS011;8809;51.892;8.384;2022-09-09T09:38:35;4.20;;;1.08;;
17382;SDS011;8809;51.892;8.384;2022-09-09T09:41:02;4.47;;;1.33;;
17382;SDS011;8809;51.892;8.384;2022-09-09T09:43:30;4.45;;;1.25;;
17382;SDS011;8809;51.892;8.384;2022-09-09T09:45:58;6.18;;;1.25;;
17382;SDS011;8809;51.892;8.384;2022-09-09T09:48:26;4.90;;;1.45;;
17382;SDS011;8809;51.892;8.384;2022-09-09T09:50:54;2.85;;;1.10;;
17382;SDS011;8809;51.892;8.384;2022-09-09T09:53:25;4.40;;;1.33;;
17382;SDS011;8809;51.892;8.384;2022-09-09T09:55:56;5.82;;;1.40;;
17382;SDS011;8809;51.892;8.384;2022-09-09T09:58:25;3.92;;;1.20;;
17382;SDS011;8809;51.892;8.384;2022-09-09T10:00:55;6.88;;;1.33;;
17382;SDS011;8809;51.892;8.384;2022-09-09T10:03:26;2.05;;;0.93;;
17382;SDS011;8809;51.892;8.384;2022-09-09T10:05:57;6.65;;;1.30;;
17382;SDS011;8809;51.892;8.384;2022-09-09T10:08:26;2.13;;;0.77;;
17382;SDS011;8809;51.892;8.384;2022-09-09T10:11:06;8.00;;;1.40;;
17382;SDS011;8809;51.892;8.384;2022-09-09T10:13:51;3.13;;;1.38;;
17382;SDS011;8809;51.892;8.384;2022-09-09T10:16:27;4.05;;;1.10;;
17382;SDS011;8809;51.892;8.384;2022-09-09T10:19:02;4.25;;;1.10;;
17382;SDS011;8809;51.892;8.384;2022-09-09T10:21:51;5.15;;;1.40;;
17382;SDS011;8809;51.892;8.384;2022-09-09T10:24:36;2.80;;;1.10;;
17382;SDS011;8809;51.892;8.384;2022-09-09T10:27:22;2.30;;;1.05;;
17382;SDS011;8809;51.892;8.384;2022-09-09T10:29:59;5.15;;;1.48;;
17382;SDS011;8809;51.892;8.384;2022-09-09T10:32:38;3.22;;;1.27;;
17382;SDS011;8809;51.892;8.384;2022-09-09T10:35:12;3.75;;;1.20;;
17382;SDS011;8809;51.892;8.384;2022-09-09T10:38:09;4.35;;;1.30;;
17382;SDS011;8809;51.892;8.384;2022-09-09T10:40:59;8.05;;;1.40;;
17382;SDS011;8809;51.892;8.384;2022-09-09T10:43:46;2.58;;;1.40;;
17382;SDS011;8809;51.892;8.384;2022-09-09T10:46:27;4.80;;;1.30;;
17382;SDS011;8809;51.892;8.384;2022-09-09T10:49:07;4.25;;;1.27;;
17382;SDS011;8809;51.892;8.384;2022-09-09T10:51:50;3.53;;;1.40;;
17382;SDS011;8809;51.892;8.384;2022-09-09T10:54:24;3.45;;;1.00;;
17382;SDS011;8809;51.892;8.384;2022-09-09T10:57:01;4.57;;;1.23;;
17382;SDS011;8809;51.892;8.384;2022-09-09T10:59:35;2.13;;;0.90;;
17382;SDS011;8809;51.892;8.384;2022-09-09T11:02:12;3.40;;;1.17;;
17382;SDS011;8809;51.892;8.384;2022-09-09T11:04:44;4.13;;;1.30;;
17382;SDS011;8809;51.892;8.384;2022-09-09T11:07:20;7.35;;;1.58;;
17382;SDS011;8809;51.892;8.384;2022-09-09T11:09:57;3.00;;;1.27;;
17382;SDS011;8809;51.892;8.384;2022-09-09T11:12:29;5.00;;;1.30;;
17382;SDS011;8809;51.892;8.384;2022-09-09T11:15:02;3.35;;;1.30;;
17382;SDS011;8809;51.892;8.384;2022-09-09T11:17:34;3.45;;;1.20;;
17382;SDS011;8809;51.892;8.384;2022-09-09T11:20:06;2.67;;;1.25;;
17382;SDS011;8809;51.892;8.384;2022-09-09T11:22:43;2.65;;;1.15;;
17382;SDS011;8809;51.892;8.384;2022-09-09T11:25:15;2.15;;;1.00;;
17382;SDS011;8809;51.892;8.384;2022-09-09T11:27:53;1.67;;;0.98;;
17382;SDS011;8809;51.892;8.384;2022-09-09T11:30:36;3.60;;;1.08;;
17382;SDS011;8809;51.892;8.384;2022-09-09T11:33:22;5.43;;;1.10;;
17382;SDS011;8809;51.892;8.384;2022-09-09T11:36:06;2.78;;;0.93;;
17382;SDS011;8809;51.892;8.384;2022-09-09T11:38:54;2.13;;;0.77;;
17382;SDS011;8809;51.892;8.384;2022-09-09T11:41:32;2.90;;;1.10;;
17382;SDS011;8809;51.892;8.384;2022-09-09T11:44:08;3.97;;;1.25;;
17382;SDS011;8809;51.892;8.384;2022-09-09T11:46:38;3.92;;;0.95;;
17382;SDS011;8809;51.892;8.384;2022-09-09T11:49:21;1.90;;;0.93;;
17382;SDS011;8809;51.892;8.384;2022-09-09T11:51:53;2.05;;;0.98;;
17382;SDS011;8809;51.892;8.384;2022-09-09T11:54:30;3.58;;;1.08;;
17382;SDS011;8809;51.892;8.384;2022-09-09T11:56:58;3.20;;;0.98;;
17382;SDS011;8809;51.892;8.384;2022-09-09T11:59:27;2.88;;;0.90;;
17382;SDS011;8809;51.892;8.384;2022-09-09T12:02:00;2.03;;;0.85;;
17382;SDS011;8809;51.892;8.384;2022-09-09T12:04:33;2.60;;;0.93;;
17382;SDS011;8809;51.892;8.384;2022-09-09T12:07:04;1.50;;;0.45;;
17382;SDS011;8809;51.892;8.384;2022-09-09T12:09:49;2.88;;;0.60;;
17382;SDS011;8809;51.892;8.384;2022-09-09T12:12:23;2.33;;;0.85;;
17382;SDS011;8809;51.892;8.384;2022-09-09T12:14:59;4.22;;;0.90;;
17382;SDS011;8809;51.892;8.384;2022-09-09T12:17:46;3.63;;;0.90;;
17382;SDS011;8809;51.892;8.384;2022-09-09T12:20:16;2.25;;;0.82;;
17382;SDS011;8809;51.892;8.384;2022-09-09T12:22:51;5.45;;;1.30;;
17382;SDS011;8809;51.892;8.384;2022-09-09T12:25:28;5.13;;;1.00;;
17382;SDS011;8809;51.892;8.384;2022-09-09T12:28:04;3.50;;;1.00;;
17382;SDS011;8809;51.892;8.384;2022-09-09T12:30:39;3.17;;;1.27;;
17382;SDS011;8809;51.892;8.384;2022-09-09T12:33:16;2.88;;;1.10;;
17382;SDS011;8809;51.892;8.384;2022-09-09T12:35:44;2.97;;;0.95;;
17382;SDS011;8809;51.892;8.384;2022-09-09T12:38:18;2.53;;;1.10;;
17382;SDS011;8809;51.892;8.384;2022-09-09T12:40:54;4.00;;;1.00;;
17382;SDS011;8809;51.892;8.384;2022-09-09T12:43:23;3.78;;;1.20;;
17382;SDS011;8809;51.892;8.384;2022-09-09T12:45:52;3.90;;;1.10;;
17382;SDS011;8809;51.892;8.384;2022-09-09T12:48:25;1.98;;;0.93;;
17382;SDS011;8809;51.892;8.384;2022-09-09T12:50:57;3.53;;;1.10;;
17382;SDS011;8809;51.892;8.384;2022-09-09T12:53:26;4.07;;;0.98;;
17382;SDS011;8809;51.892;8.384;2022-09-09T12:55:56;3.08;;;1.02;;
17382;SDS011;8809;51.892;8.384;2022-09-09T12:58:25;2.97;;;1.05;;
17382;SDS011;8809;51.892;8.384;2022-09-09T13:00:59;2.78;;;0.90;;
17382;SDS011;8809;51.892;8.384;2022-09-09T13:03:30;2.40;;;1.02;;
17382;SDS011;8809;51.892;8.384;2022-09-09T13:05:58;3.55;;;0.90;;
17382;SDS011;8809;51.892;8.384;2022-09-09T13:08:37;2.00;;;0.80;;
17382;SDS011;8809;51.892;8.384;2022-09-09T13:11:04;1.33;;;0.77;;
17382;SDS011;8809;51.892;8.384;2022-09-09T13:13:39;2.00;;;0.88;;
17382;SDS011;8809;51.892;8.384;2022-09-09T13:16:18;2.58;;;0.90;;
17382;SDS011;8809;51.892;8.384;2022-09-09T13:18:48;5.72;;;1.00;;
17382;SDS011;8809;51.892;8.384;2022-09-09T13:21:16;1.50;;;0.80;;
17382;SDS011;8809;51.892;8.384;2022-09-09T13:23:47;2.45;;;0.60;;
17382;SDS011;8809;51.892;8.384;2022-09-09T13:26:21;2.13;;;0.50;;
17382;SDS011;8809;51.892;8.384;2022-09-09T13:28:51;1.42;;;0.70;;
17382;SDS011;8809;51.892;8.384;2022-09-09T13:31:21;2.40;;;0.68;;
17382;SDS011;8809;51.892;8.384;2022-09-09T13:33:49;1.48;;;0.57;;
17382;SDS011;8809;51.892;8.384;2022-09-09T13:36:26;1.17;;;0.60;;
17382;SDS011;8809;51.892;8.384;2022-09-09T13:38:56;1.13;;;0.55;;
17382;SDS011;8809;51.892;8.384;2022-09-09T13:41:25;2.30;;;0.82;;
17382;SDS011;8809;51.892;8.384;2022-09-09T13:43:55;2.45;;;0.60;;
17382;SDS011;8809;51.892;8.384;2022-09-09T13:46:26;1.15;;;0.80;;
17382;SDS011;8809;51.892;8.384;2022-09-09T13:49:00;2.50;;;0.75;;
17382;SDS011;8809;51.892;8.384;2022-09-09T13:51:30;1.60;;;0.70;;
17382;SDS011;8809;51.892;8.384;2022-09-09T13:54:03;1.65;;;0.60;;
17382;SDS011;8809;51.892;8.384;2022-09-09T13:56:30;2.72;;;0.60;;
17382;SDS011;8809;51.892;8.384;2022-09-09T13:58:57;1.20;;;0.60;;
17382;SDS011;8809;51.892;8.384;2022-09-09T14:01:26;1.20;;;0.60;;
17382;SDS011;8809;51.892;8.384;2022-09-09T14:03:53;1.08;;;0.70;;
17382;SDS011;8809;51.892;8.384;2022-09-09T14:06:21;2.45;;;0.75;;
17382;SDS011;8809;51.892;8.384;2022-09-09T14:08:49;2.97;;;0.60;;
17382;SDS011;8809;51.892;8.384;2022-09-09T14:11:16;2.38;;;0.80;;
17382;SDS011;8809;51.892;8.384;2022-09-09T14:13:44;2.28;;;0.65;;
17382;SDS011;8809;51.892;8.384;2022-09-09T14:16:11;4.13;;;0.70;;
17382;SDS011;8809;51.892;8.384;2022-09-09T14:18:40;1.60;;;0.63;;
17382;SDS011;8809;51.892;8.384;2022-09-09T14:21:07;2.97;;;0.77;;
17382;SDS011;8809;51.892;8.384;2022-09-09T14:23:34;2.63;;;0.90;;
17382;SDS011;8809;51.892;8.384;2022-09-09T14:26:01;1.65;;;0.60;;
17382;SDS011;8809;51.892;8.384;2022-09-09T14:28:28;1.33;;;0.70;;
17382;SDS011;8809;51.892;8.384;2022-09-09T14:30:58;1.20;;;0.70;;
17382;SDS011;8809;51.892;8.384;2022-09-09T14:33:26;2.53;;;0.80;;
17382;SDS011;8809;51.892;8.384;2022-09-09T14:35:56;1.90;;;0.70;;
17382;SDS011;8809;51.892;8.384;2022-09-09T14:38:24;1.73;;;0.70;;
17382;SDS011;8809;51.892;8.384;2022-09-09T14:40:51;3.30;;;0.80;;
17382;SDS011;8809;51.892;8.384;2022-09-09T14:43:18;1.30;;;0.77;;
17382;SDS011;8809;51.892;8.384;2022-09-09T14:45:46;2.15;;;0.70;;
17382;SDS011;8809;51.892;8.384;2022-09-09T14:48:13;1.77;;;0.80;;
17382;SDS011;8809;51.892;8.384;2022-09-09T14:50:41;2.83;;;0.82;;
17382;SDS011;8809;51.892;8.384;2022-09-09T14:53:09;3.65;;;1.00;;
17382;SDS011;8809;51.892;8.384;2022-09-09T14:55:36;1.88;;;0.70;;
17382;SDS011;8809;51.892;8.384;2022-09-09T14:58:04;2.03;;;0.70;;
17382;SDS011;8809;51.892;8.384;2022-09-09T15:00:31;1.60;;;0.70;;
17382;SDS011;8809;51.892;8.384;2022-09-09T15:02:59;3.28;;;0.85;;
17382;SDS011;8809;51.892;8.384;2022-09-09T15:05:26;3.83;;;0.70;;
17382;SDS011;8809;51.892;8.384;2022-09-09T15:07:53;2.78;;;0.70;;
17382;SDS011;8809;51.892;8.384;2022-09-09T15:10:21;1.85;;;0.70;;
17382;SDS011;8809;51.892;8.384;2022-09-09T15:12:48;4.03;;;0.80;;
17382;SDS011;8809;51.892;8.384;2022-09-09T15:15:15;1.60;;;0.70;;
17382;SDS011;8809;51.892;8.384;2022-09-09T15:17:42;1.35;;;0.80;;
17382;SDS011;8809;51.892;8.384;2022-09-09T15:20:09;1.35;;;0.70;;
17382;SDS011;8809;51.892;8.384;2022-09-09T15:22:36;0.93;;;0.60;;
17382;SDS011;8809;51.892;8.384;2022-09-09T15:25:03;1.38;;;0.70;;
17382;SDS011;8809;51.892;8.384;2022-09-09T15:27:34;0.90;;;0.60;;
17382;SDS011;8809;51.892;8.384;2022-09-09T15:30:02;1.48;;;0.52;;
17382;SDS011;8809;51.892;8.384;2022-09-09T15:32:29;1.90;;;0.70;;
17382;SDS011;8809;51.892;8.384;2022-09-09T15:34:57;1.17;;;0.65;;